Time;durP1;ratioP1;P1;durP2;ratioP2;P2;SDS_P1;SDS_P2;PMS_P1;PMS_P2;Temp;Humidity;BMP_temperature;BMP_pressure;BME280_temperature;BME280_humidity;BME280_pressure;Samples;Min_cycle;Max_cycle;Signal;HPM_P1;HPM_P2
2023/10/07 00:02:50;;;;;;;9.80;3.42;;;;;;;15.49;100.00;101484.59;6301772;28;20048;-77
2023/10/07 00:06:00;;;;;;;8.30;2.90;;;;;;;15.55;100.00;101491.31;6301650;28;20052;-76
2023/10/07 00:09:01;;;;;;;;;;;;;;;15.52;100.00;101491.50;6302239;28;20425;-78
2023/10/07 00:12:03;;;;;;;5.82;3.08;;;;;;;15.52;100.00;101479.09;6301389;28;19927;-78
2023/10/07 00:15:05;;;;;;;7.80;3.05;;;;;;;15.54;100.00;101469.25;6301517;28;20437;-76
2023/10/07 00:18:11;;;;;;;12.65;3.58;;;;;;;15.59;100.00;101483.06;6301518;28;20056;-76
2023/10/07 00:21:15;;;;;;;10.60;3.25;;;;;;;15.53;100.00;101488.72;6301231;28;20131;-76
2023/10/07 00:24:19;;;;;;;6.28;3.22;;;;;;;15.54;100.00;101485.16;6301398;28;20048;-77
2023/10/07 00:27:29;;;;;;;9.20;2.67;;;;;;;15.53;100.00;101474.63;6301550;28;20049;-77
2023/10/07 00:30:30;;;;;;;9.65;2.92;;;;;;;15.52;100.00;101470.28;6300996;28;20048;-76
2023/10/07 00:33:49;;;;;;;8.63;3.35;;;;;;;15.51;100.00;101479.19;6300977;28;20348;-77
2023/10/07 00:36:51;;;;;;;7.07;3.20;;;;;;;15.50;100.00;101475.69;6300908;28;20502;-77
2023/10/07 00:39:53;;;;;;;6.05;2.97;;;;;;;15.47;100.00;101476.72;6300774;28;20044;-76
2023/10/07 00:42:56;;;;;;;8.07;3.05;;;;;;;15.48;100.00;101474.94;6301025;28;20467;-77
2023/10/07 00:46:08;;;;;;;11.10;3.08;;;;;;;15.48;100.00;101470.47;6301087;28;20052;-77
2023/10/07 00:49:15;;;;;;;12.05;3.35;;;;;;;15.47;100.00;101473.22;6300713;28;20360;-77
2023/10/07 00:52:27;;;;;;;7.35;3.15;;;;;;;15.50;100.00;101466.91;6300565;28;20044;-77
2023/10/07 00:55:29;;;;;;;9.60;4.38;;;;;;;15.46;100.00;101460.94;6300789;28;20040;-76
2023/10/07 00:58:35;;;;;;;9.98;3.88;;;;;;;15.42;100.00;101467.38;6300454;28;20048;-77
2023/10/07 01:01:36;;;;;;;15.80;4.07;;;;;;;15.42;100.00;101470.03;6298804;28;20122;-77
2023/10/07 01:04:40;;;;;;;8.13;3.67;;;;;;;15.45;100.00;101483.09;6300386;28;20135;-79
2023/10/07 01:07:46;;;;;;;8.45;3.50;;;;;;;15.45;100.00;101475.13;6300422;28;20094;-76
2023/10/07 01:10:54;;;;;;;12.32;3.72;;;;;;;15.51;100.00;101490.63;6300073;28;20466;-77
2023/10/07 01:13:59;;;;;;;10.80;3.33;;;;;;;15.52;100.00;101487.03;6300253;28;20094;-79
2023/10/07 01:17:08;;;;;;;6.90;3.78;;;;;;;15.51;100.00;101489.78;6299806;28;20106;-76
2023/10/07 01:20:14;;;;;;;7.28;3.25;;;;;;;15.50;100.00;101474.84;6275678;28;20072;-75
2023/10/07 01:23:24;;;;;;;13.40;3.88;;;;;;;15.51;100.00;101479.19;6299970;28;20476;-75
2023/10/07 01:26:30;;;;;;;11.57;3.47;;;;;;;15.56;100.00;101469.16;6300319;28;20254;-74
2023/10/07 01:29:32;;;;;;;11.25;3.35;;;;;;;15.54;100.00;101474.56;6299763;28;20436;-75
2023/10/07 01:32:42;;;;;;;10.68;3.55;;;;;;;15.54;100.00;101465.75;6300460;28;20128;-75
2023/10/07 01:36:06;;;;;;;10.32;3.50;;;;;;;15.58;100.00;101460.19;6300221;28;20060;-75
2023/10/07 01:39:10;;;;;;;11.23;3.55;;;;;;;15.63;100.00;101459.88;6300049;28;20060;-75
2023/10/07 01:42:20;;;;;;;6.35;3.47;;;;;;;15.60;100.00;101463.56;6299656;28;20040;-76
2023/10/07 01:45:22;;;;;;;6.00;3.17;;;;;;;15.60;100.00;101473.31;6300104;28;20349;-76
2023/10/07 01:48:24;;;;;;;10.48;3.30;;;;;;;15.65;100.00;101465.97;6299915;28;20048;-76
2023/10/07 01:51:28;;;;;;;7.20;3.15;;;;;;;15.66;100.00;101467.66;6299703;28;20048;-74
2023/10/07 01:54:33;;;;;;;14.98;3.35;;;;;;;15.70;100.00;101463.88;6299967;28;20453;-76
2023/10/07 01:57:35;;;;;;;7.55;2.97;;;;;;;15.71;100.00;101474.41;6299839;28;20059;-75
2023/10/07 02:00:42;;;;;;;11.80;3.20;;;;;;;15.70;100.00;101463.88;6299327;28;20052;-75
2023/10/07 02:03:46;;;;;;;7.63;3.25;;;;;;;15.69;100.00;101463.03;6299884;28;20099;-76
2023/10/07 02:06:51;;;;;;;7.13;2.90;;;;;;;15.66;100.00;101468.50;6299554;28;20053;-74
2023/10/07 02:09:57;;;;;;;7.60;2.88;;;;;;;15.67;100.00;101459.63;6299520;28;20045;-76
2023/10/07 02:12:58;;;;;;;11.57;4.78;;;;;;;15.67;100.00;101464.94;6300081;28;20048;-75
2023/10/07 02:16:06;;;;;;;8.43;3.53;;;;;;;15.69;100.00;101456.88;6304325;28;20060;-74
2023/10/07 02:19:14;;;;;;;14.05;3.83;;;;;;;15.71;100.00;101461.16;6304051;28;20402;-76
2023/10/07 02:22:28;;;;;;;7.07;3.33;;;;;;;15.78;100.00;101458.94;6304056;28;20048;-76
2023/10/07 02:25:32;;;;;;;10.10;3.50;;;;;;;15.75;100.00;101448.53;6304008;28;20466;-76
2023/10/07 02:28:34;;;;;;;9.45;3.70;;;;;;;15.75;100.00;101445.03;6304199;28;20126;-77
2023/10/07 02:31:43;;;;;;;16.77;3.47;;;;;;;15.80;100.00;101441.13;6303668;28;20102;-75
2023/10/07 02:34:52;;;;;;;7.45;3.20;;;;;;;15.71;100.00;101429.34;6303342;28;20076;-75
2023/10/07 02:37:53;;;;;;;7.45;3.33;;;;;;;15.62;100.00;101432.50;6303799;28;20052;-75
2023/10/07 02:41:06;;;;;;;13.43;3.92;;;;;;;15.54;100.00;101434.81;6303282;28;20433;-75
2023/10/07 02:44:15;;;;;;;11.45;4.60;;;;;;;15.56;100.00;101427.63;6303938;28;20586;-75
2023/10/07 02:47:17;;;;;;;6.05;3.22;;;;;;;15.55;100.00;101441.81;6303497;28;20348;-76
2023/10/07 02:50:19;;;;;;;11.27;3.92;;;;;;;15.55;100.00;101443.63;6303382;28;20056;-75
2023/10/07 02:53:20;;;;;;;7.28;3.67;;;;;;;15.52;100.00;101442.00;6303476;28;20441;-76
2023/10/07 02:56:23;;;;;;;11.40;4.65;;;;;;;15.43;100.00;101440.78;6303436;28;20053;-76
2023/10/07 02:59:28;;;;;;;13.15;4.50;;;;;;;15.40;100.00;101445.44;6302584;28;20044;-77
2023/10/07 03:02:37;;;;;;;8.85;3.80;;;;;;;15.36;100.00;101438.63;6297668;28;20048;-75
2023/10/07 03:05:43;;;;;;;14.13;4.40;;;;;;;15.30;100.00;101431.88;6302685;28;20040;-76
2023/10/07 03:08:57;;;;;;;6.15;3.97;;;;;;;15.33;100.00;101433.50;6302533;28;20095;-76
2023/10/07 03:12:04;;;;;;;14.25;4.40;;;;;;;15.34;100.00;101432.56;6278010;28;20053;-76
2023/10/07 03:15:20;;;;;;;8.38;4.30;;;;;;;15.34;100.00;101430.75;6287433;28;20049;-76
2023/10/07 03:18:23;;;;;;;9.13;3.47;;;;;;;15.32;100.00;101430.00;6302371;28;20101;-76
2023/10/07 03:21:42;;;;;;;15.43;4.20;;;;;;;15.26;100.00;101440.13;6302303;28;20048;-73
2023/10/07 03:24:48;;;;;;;11.25;4.43;;;;;;;15.25;100.00;101426.03;6299649;28;20070;-72
2023/10/07 03:27:51;;;;;;;16.40;4.00;;;;;;;15.23;100.00;101439.38;6302584;28;20432;-72
2023/10/07 03:30:55;;;;;;;9.27;5.07;;;;;;;15.31;100.00;101435.41;6301820;28;20043;-71
2023/10/07 03:33:59;;;;;;;12.27;4.38;;;;;;;15.26;100.00;101445.41;6302233;28;20045;-76
2023/10/07 03:37:14;;;;;;;8.60;4.75;;;;;;;15.27;100.00;101457.72;6301918;28;20098;-73
2023/10/07 03:40:25;;;;;;;8.05;4.68;;;;;;;15.25;100.00;101455.16;6300116;28;20041;-73
2023/10/07 03:43:28;;;;;;;10.80;5.22;;;;;;;15.21;100.00;101451.00;6299074;28;20144;-74
2023/10/07 03:46:30;;;;;;;12.95;4.78;;;;;;;15.15;100.00;101441.63;6302349;28;20056;-73
2023/10/07 03:49:34;;;;;;;11.68;4.53;;;;;;;15.13;100.00;101446.19;6301935;28;20050;-73
2023/10/07 03:52:37;;;;;;;9.88;4.78;;;;;;;15.15;100.00;101440.78;6302361;28;20048;-72
2023/10/07 03:55:41;;;;;;;9.10;4.93;;;;;;;15.05;100.00;101450.25;6301958;28;20133;-74
2023/10/07 03:58:44;;;;;;;11.55;5.45;;;;;;;15.01;100.00;101443.44;6302047;28;20055;-74
2023/10/07 04:01:46;;;;;;;12.65;5.30;;;;;;;14.97;100.00;101442.75;6301666;28;20047;-74
2023/10/07 04:04:51;;;;;;;11.77;6.43;;;;;;;14.92;100.00;101443.03;6302065;28;20055;-73
2023/10/07 04:07:53;;;;;;;8.50;5.57;;;;;;;14.91;100.00;101456.38;6301667;28;20044;-73
2023/10/07 04:10:54;;;;;;;12.90;5.63;;;;;;;14.88;100.00;101438.88;6301328;28;20041;-73
2023/10/07 04:13:58;;;;;;;14.75;5.85;;;;;;;14.94;100.00;101435.88;6301524;28;20360;-73
2023/10/07 04:17:00;;;;;;;19.67;6.00;;;;;;;14.90;100.00;101449.38;6301349;28;20049;-70
2023/10/07 04:20:17;;;;;;;13.82;5.85;;;;;;;14.90;100.00;101446.75;6301320;28;20048;-74
2023/10/07 04:23:24;;;;;;;12.52;5.25;;;;;;;14.97;100.00;101450.72;6301511;28;20186;-74
2023/10/07 04:26:25;;;;;;;16.40;5.68;;;;;;;14.95;100.00;101445.50;6301401;28;20064;-73
2023/10/07 04:29:29;;;;;;;9.45;5.68;;;;;;;15.01;100.00;101452.22;6301163;28;20056;-72
2023/10/07 04:32:31;;;;;;;10.45;5.55;;;;;;;14.98;100.00;101453.25;6301136;28;20202;-73
2023/10/07 04:35:37;;;;;;;24.20;6.63;;;;;;;15.00;100.00;101453.19;6300987;28;20052;-72
2023/10/07 04:38:56;;;;;;;13.35;5.82;;;;;;;15.04;100.00;101444.09;6300834;28;20321;-73
2023/10/07 04:41:58;;;;;;;13.98;5.70;;;;;;;15.09;100.00;101447.31;6300772;28;20045;-73
2023/10/07 04:45:22;;;;;;;15.15;5.72;;;;;;;15.10;100.00;101451.66;6300941;28;20055;-72
2023/10/07 04:48:40;;;;;;;15.75;6.00;;;;;;;15.13;100.00;101445.34;6300743;28;20052;-72
2023/10/07 04:51:47;;;;;;;9.00;5.00;;;;;;;15.12;100.00;101446.25;6300633;28;20089;-72
2023/10/07 04:54:52;;;;;;;14.57;5.63;;;;;;;15.11;100.00;101447.22;6300833;28;20060;-73
2023/10/07 04:58:03;;;;;;;16.42;5.72;;;;;;;15.15;100.00;101444.28;6300755;28;20049;-72
2023/10/07 05:01:06;;;;;;;11.35;5.10;;;;;;;15.18;100.00;101436.16;6300074;28;20048;-73
2023/10/07 05:04:13;;;;;;;18.27;8.15;;;;;;;15.23;100.00;101431.44;6300415;28;20063;-72
2023/10/07 05:07:24;;;;;;;15.13;5.80;;;;;;;15.26;100.00;101440.13;6297867;28;20045;-73
2023/10/07 05:10:29;;;;;;;17.15;6.05;;;;;;;15.27;100.00;101433.91;6300092;28;20050;-73
2023/10/07 05:13:32;;;;;;;10.60;5.85;;;;;;;15.29;100.00;101429.34;6300597;28;20044;-72
2023/10/07 05:16:36;;;;;;;14.40;6.10;;;;;;;15.35;100.00;101431.59;6300357;28;20130;-72
2023/10/07 05:19:38;;;;;;;13.20;5.40;;;;;;;15.36;100.00;101417.44;6299948;28;20056;-72
2023/10/07 05:22:39;;;;;;;16.27;6.13;;;;;;;15.36;100.00;101430.69;6300279;28;20044;-72
2023/10/07 05:25:48;;;;;;;13.20;5.45;;;;;;;15.36;100.00;101431.53;6300136;28;20048;-73
2023/10/07 05:28:49;;;;;;;12.93;5.97;;;;;;;15.39;100.00;101425.16;6300259;28;20056;-72
2023/10/07 05:31:52;;;;;;;14.18;5.93;;;;;;;15.39;100.00;101433.97;6299971;28;20048;-72
2023/10/07 05:34:57;;;;;;;13.98;5.05;;;;;;;15.41;100.00;101431.25;6300461;28;20060;-72
2023/10/07 05:38:03;;;;;;;12.40;6.07;;;;;;;15.47;100.00;101422.91;6299966;28;20058;-72
2023/10/07 05:41:06;;;;;;;15.77;5.90;;;;;;;15.48;100.00;101430.75;6299903;28;20139;-72
2023/10/07 05:44:08;;;;;;;17.75;5.78;;;;;;;15.55;100.00;101420.63;6300070;28;20079;-72
2023/10/07 05:47:12;;;;;;;14.57;5.82;;;;;;;15.54;100.00;101432.19;6300084;28;20044;-72
2023/10/07 05:50:13;;;;;;;12.25;6.30;;;;;;;15.51;100.00;101424.41;6304071;28;20051;-71
2023/10/07 05:53:15;;;;;;;21.77;5.95;;;;;;;15.50;100.00;101435.97;6304932;28;20424;-72
2023/10/07 05:56:17;;;;;;;19.63;6.13;;;;;;;15.51;100.00;101434.16;6304672;28;20048;-72
2023/10/07 05:59:19;;;;;;;13.50;6.53;;;;;;;15.46;100.00;101430.00;6304897;28;20049;-72
2023/10/07 06:02:23;;;;;;;14.02;6.22;;;;;;;15.45;100.00;101430.09;6304709;28;20048;-73
2023/10/07 06:05:27;;;;;;;16.73;6.32;;;;;;;15.46;100.00;101419.41;6304470;28;20052;-73
2023/10/07 06:08:29;;;;;;;10.68;5.85;;;;;;;15.47;100.00;101423.75;6304810;28;20436;-72
2023/10/07 06:11:31;;;;;;;11.68;6.40;;;;;;;15.49;100.00;101418.38;6304353;28;20150;-72
2023/10/07 06:14:35;;;;;;;15.27;6.68;;;;;;;15.47;100.00;101415.81;6304592;28;20055;-73
2023/10/07 06:17:38;;;;;;;16.48;6.30;;;;;;;15.47;100.00;101421.09;6304172;28;20134;-72
2023/10/07 06:20:46;;;;;;;11.25;6.32;;;;;;;15.53;100.00;101419.00;6304310;28;20052;-73
2023/10/07 06:23:48;;;;;;;10.95;5.65;;;;;;;15.53;100.00;101411.91;6304204;28;20048;-72
2023/10/07 06:26:50;;;;;;;13.80;6.20;;;;;;;15.53;100.00;101419.84;6304488;28;20048;-72
2023/10/07 06:29:51;;;;;;;18.10;7.63;;;;;;;15.53;100.00;101422.50;6303730;28;20450;-72
2023/10/07 06:32:56;;;;;;;16.50;6.30;;;;;;;15.50;100.00;101424.53;6304216;28;20051;-72
2023/10/07 06:35:59;;;;;;;12.55;6.35;;;;;;;15.52;100.00;101423.47;6303854;28;20045;-73
2023/10/07 06:39:01;;;;;;;21.33;7.80;;;;;;;15.59;100.00;101430.09;6303953;28;20044;-73
2023/10/07 06:42:05;;;;;;;14.23;7.95;;;;;;;15.58;100.00;101441.63;6303644;28;20075;-73
2023/10/07 06:45:10;;;;;;;14.60;7.35;;;;;;;15.60;100.00;101425.63;6303639;28;20135;-72
2023/10/07 06:48:12;;;;;;;16.58;7.20;;;;;;;15.50;100.00;101429.81;6302175;28;20127;-72
2023/10/07 06:51:14;;;;;;;21.05;6.63;;;;;;;15.53;100.00;101426.94;6298075;28;20452;-72
2023/10/07 06:54:15;;;;;;;19.52;7.30;;;;;;;15.52;100.00;101419.97;6301376;28;20075;-72
2023/10/07 06:57:17;;;;;;;20.00;7.63;;;;;;;15.51;100.00;101421.75;6296841;28;20051;-72
2023/10/07 07:00:25;;;;;;;14.85;8.00;;;;;;;15.48;100.00;101424.59;6298267;28;20545;-72
2023/10/07 07:03:28;;;;;;;15.85;7.82;;;;;;;15.48;100.00;101420.13;6297308;28;20044;-72
2023/10/07 07:06:34;;;;;;;19.95;7.82;;;;;;;15.55;100.00;101425.06;6301170;28;20500;-72
2023/10/07 07:09:50;;;;;;;17.00;8.20;;;;;;;15.52;100.00;101425.25;6296699;28;20056;-72
2023/10/07 07:12:51;;;;;;;17.17;9.40;;;;;;;15.52;100.00;101427.91;6301317;28;20055;-74
2023/10/07 07:15:59;;;;;;;16.92;8.35;;;;;;;15.57;100.00;101431.13;6300203;28;20044;-73
2023/10/07 07:19:06;;;;;;;23.63;10.50;;;;;;;15.56;100.00;101430.25;6299457;28;20044;-75
2023/10/07 07:22:11;;;;;;;18.45;8.25;;;;;;;15.55;100.00;101438.31;6300709;28;20349;-75
2023/10/07 07:25:22;;;;;;;23.35;9.88;;;;;;;15.59;100.00;101439.84;6297947;28;20136;-75
2023/10/07 07:28:24;;;;;;;26.13;9.02;;;;;;;15.57;100.00;101445.22;6300890;28;20086;-75
2023/10/07 07:31:33;;;;;;;18.83;8.13;;;;;;;15.58;100.00;101451.34;6302180;28;20609;-76
2023/10/07 07:34:36;;;;;;;20.88;8.68;;;;;;;15.60;100.00;101457.44;6302351;28;20048;-75
2023/10/07 07:37:40;;;;;;;17.77;8.70;;;;;;;15.58;100.00;101460.19;6302347;28;20044;-75
2023/10/07 07:40:43;;;;;;;17.48;8.98;;;;;;;15.58;100.00;101454.88;6301705;28;20040;-74
2023/10/07 07:43:45;;;;;;;22.42;8.90;;;;;;;15.58;100.00;101448.69;6301937;28;20347;-76
2023/10/07 07:46:52;;;;;;;22.23;9.57;;;;;;;15.63;100.00;101455.44;6301874;28;20040;-75
2023/10/07 07:49:54;;;;;;;23.58;10.20;;;;;;;15.61;100.00;101452.00;6299324;28;20059;-75
2023/10/07 07:52:57;;;;;;;21.90;9.18;;;;;;;15.59;100.00;101450.44;6299076;28;20041;-76
2023/10/07 07:55:59;;;;;;;21.23;9.75;;;;;;;15.59;100.00;101445.97;6300858;28;20084;-75
2023/10/07 07:59:13;;;;;;;18.83;9.30;;;;;;;15.60;100.00;101433.56;6299683;28;20338;-75
2023/10/07 08:02:16;;;;;;;27.08;9.95;;;;;;;15.59;100.00;101440.69;6301335;28;20051;-75
2023/10/07 08:05:19;;;;;;;19.45;9.00;;;;;;;15.60;100.00;101441.53;6301808;28;20135;-77
2023/10/07 08:08:24;;;;;;;23.60;10.45;;;;;;;15.62;100.00;101440.47;6301816;28;20052;-77
2023/10/07 08:11:26;;;;;;;23.13;9.75;;;;;;;15.64;100.00;101445.72;6301811;28;20044;-77
2023/10/07 08:14:27;;;;;;;27.00;9.88;;;;;;;15.62;100.00;101444.91;6301310;28;20051;-77
2023/10/07 08:17:29;;;;;;;22.52;9.73;;;;;;;15.65;100.00;101442.13;6301434;28;20056;-76
2023/10/07 08:20:37;;;;;;;18.33;9.95;;;;;;;15.73;100.00;101421.28;6301010;28;20340;-76
2023/10/07 08:23:40;;;;;;;20.83;9.85;;;;;;;15.77;100.00;101420.13;6301415;28;20319;-77
2023/10/07 08:26:48;;;;;;;25.25;9.75;;;;;;;15.78;100.00;101427.13;6301171;28;20052;-77
2023/10/07 08:29:53;;;;;;;18.23;9.45;;;;;;;15.81;100.00;101432.25;6298227;28;20063;-76
2023/10/07 08:32:55;;;;;;;29.88;10.25;;;;;;;15.84;100.00;101434.69;6300335;28;20079;-77
2023/10/07 08:35:58;;;;;;;15.65;8.93;;;;;;;15.93;100.00;101425.28;6296774;28;20451;-77
2023/10/07 08:39:04;;;;;;;23.48;8.88;;;;;;;15.95;100.00;101437.50;6300513;28;20048;-76
2023/10/07 08:42:12;;;;;;;16.20;8.80;;;;;;;15.95;100.00;101429.56;6298549;28;20052;-76
2023/10/07 08:45:15;;;;;;;18.23;9.00;;;;;;;15.95;100.00;101418.09;6300238;28;20128;-75
2023/10/07 08:48:17;;;;;;;15.98;8.82;;;;;;;16.05;100.00;101415.69;6299930;28;20379;-77
2023/10/07 08:51:24;;;;;;;23.58;10.07;;;;;;;16.04;100.00;101414.84;6299853;28;20076;-75
2023/10/07 08:54:31;;;;;;;17.90;7.63;;;;;;;16.10;100.00;101425.03;6300022;28;20060;-76
2023/10/07 08:57:34;;;;;;;22.23;8.75;;;;;;;16.13;100.00;101416.91;6298098;28;20040;-75
2023/10/07 09:00:39;;;;;;;23.92;9.45;;;;;;;16.11;100.00;101408.16;6299784;28;20133;-76
2023/10/07 09:03:42;;;;;;;16.17;8.35;;;;;;;16.11;100.00;101407.31;6299442;28;20045;-75
2023/10/07 09:06:50;;;;;;;27.58;9.13;;;;;;;16.14;100.00;101410.63;6293937;28;20076;-76
2023/10/07 09:09:52;;;;;;;23.23;9.48;;;;;;;16.19;100.00;101419.13;6296601;28;20130;-73
2023/10/07 09:12:56;;;;;;;18.17;8.82;;;;;;;16.14;100.00;101418.59;6300210;28;20044;-76
2023/10/07 09:15:59;;;;;;;16.23;7.68;;;;;;;16.20;100.00;101406.72;6300310;28;20097;-79
2023/10/07 09:19:10;;;;;;;18.73;8.32;;;;;;;16.19;100.00;101410.31;6304910;22;20048;-74
2023/10/07 09:22:14;;;;;;;14.07;8.18;;;;;;;16.19;100.00;101412.97;6248696;28;20049;-73
2023/10/07 09:25:29;;;;;;;23.60;9.00;;;;;;;16.21;100.00;101401.34;6270863;28;20349;-71
2023/10/07 09:28:38;;;;;;;15.27;7.65;;;;;;;16.21;100.00;101409.28;6273393;28;20349;-73
2023/10/07 09:31:39;;;;;;;13.55;7.47;;;;;;;16.22;100.00;101410.13;6258317;28;20353;-73
2023/10/07 09:34:44;;;;;;;14.80;7.88;;;;;;;16.28;100.00;101414.19;6270248;28;20044;-73
2023/10/07 09:37:48;;;;;;;19.85;8.57;;;;;;;16.27;100.00;101434.53;6275468;28;20079;-70
2023/10/07 09:44:21;;;;;;;16.85;7.55;;;;;;;16.33;100.00;101435.94;6275011;28;20132;-70
2023/10/07 09:47:24;;;;;;;20.25;9.23;;;;;;;16.35;100.00;101444.63;6275094;28;20079;-71
2023/10/07 09:50:26;;;;;;;13.43;7.18;;;;;;;16.37;100.00;101432.97;6274526;28;20056;-70
2023/10/07 09:53:42;;;;;;;18.33;8.90;;;;;;;16.40;100.00;101442.53;6275329;28;20045;-70
2023/10/07 09:56:59;;;;;;;19.50;8.88;;;;;;;16.47;100.00;101454.44;6271402;28;20461;-72
2023/10/07 10:03:59;;;;;;;20.60;8.15;;;;;;;16.43;100.00;101467.03;6260984;28;20099;-72
2023/10/07 10:07:17;;;;;;;21.17;7.93;;;;;;;16.45;100.00;101462.50;6262069;28;20102;-73
2023/10/07 10:10:30;;;;;;;18.50;8.55;;;;;;;16.47;100.00;101457.09;6274598;28;20433;-71
2023/10/07 10:13:51;;;;;;;22.20;10.00;;;;;;;16.47;100.00;101459.75;6274705;28;20045;-71
2023/10/07 10:16:54;;;;;;;23.55;8.82;;;;;;;16.47;100.00;101465.88;6274595;28;20049;-70
2023/10/07 10:20:09;;;;;;;17.90;7.80;;;;;;;16.52;100.00;101468.25;6274325;28;20049;-71
2023/10/07 10:23:18;;;;;;;14.10;7.10;;;;;;;16.55;100.00;101457.44;6274663;28;20049;-71
2023/10/07 10:26:22;;;;;;;16.25;7.97;;;;;;;16.63;100.00;101455.13;6266066;28;20441;-73
2023/10/07 10:29:26;;;;;;;14.13;7.47;;;;;;;16.70;100.00;101436.97;6274192;28;20452;-72
2023/10/07 10:32:29;;;;;;;13.07;6.32;;;;;;;16.81;100.00;101441.59;6274685;28;20057;-73
2023/10/07 10:35:32;;;;;;;15.02;7.70;;;;;;;16.93;100.00;101435.41;6277191;28;20349;-73
2023/10/07 10:38:38;;;;;;;21.63;8.68;;;;;;;17.01;100.00;101416.31;6279076;28;20056;-72
2023/10/07 10:41:41;;;;;;;14.05;7.65;;;;;;;17.18;100.00;101422.13;6278826;28;20059;-74
2023/10/07 10:44:46;;;;;;;16.88;6.90;;;;;;;17.28;100.00;101410.88;6278607;28;20349;-72
2023/10/07 10:47:50;;;;;;;26.20;8.13;;;;;;;17.35;100.00;101418.31;6278891;28;20045;-73
2023/10/07 10:50:55;;;;;;;18.13;6.97;;;;;;;17.45;100.00;101405.19;6264385;28;20041;-72
2023/10/07 10:53:57;;;;;;;19.60;7.00;;;;;;;17.64;100.00;101426.84;6267437;28;20067;-72
2023/10/07 10:57:00;;;;;;;16.88;6.70;;;;;;;17.70;100.00;101420.22;6268926;28;20055;-72
2023/10/07 11:00:11;;;;;;;17.35;6.15;;;;;;;17.77;100.00;101418.84;6267453;28;20079;-73
2023/10/07 11:03:15;;;;;;;12.85;5.53;;;;;;;17.80;100.00;101415.09;6278130;28;20059;-72
2023/10/07 11:06:18;;;;;;;12.27;5.60;;;;;;;17.77;100.00;101420.66;6253685;28;20045;-72
2023/10/07 11:09:25;;;;;;;10.65;5.30;;;;;;;17.74;100.00;101417.25;6253289;28;20053;-73
2023/10/07 11:12:28;;;;;;;13.45;5.68;;;;;;;17.69;100.00;101416.72;6253595;28;20049;-72
2023/10/07 11:15:30;;;;;;;11.05;5.30;;;;;;;17.70;100.00;101409.56;6253548;28;20053;-72
2023/10/07 11:18:33;;;;;;;10.15;4.45;;;;;;;17.72;100.00;101413.00;6253370;28;20056;-71
2023/10/07 11:21:44;;;;;;;17.27;5.00;;;;;;;17.72;100.00;101418.31;6247757;28;20045;-72
2023/10/07 11:24:48;;;;;;;15.00;4.88;;;;;;;17.72;100.00;101419.16;6253469;28;20124;-72
2023/10/07 11:27:51;;;;;;;14.10;4.13;;;;;;;17.72;100.00;101411.19;6262220;28;20393;-72
2023/10/07 11:30:55;;;;;;;8.00;3.95;;;;;;;17.67;100.00;101418.66;6265622;28;20151;-72
2023/10/07 11:33:57;;;;;;;8.02;3.90;;;;;;;17.61;100.00;101419.06;6260594;28;20433;-71
2023/10/07 11:37:08;;;;;;;10.88;3.90;;;;;;;17.63;100.00;101409.19;6250384;28;20056;-71
2023/10/07 11:40:11;;;;;;;10.77;4.78;;;;;;;17.63;100.00;101403.03;6260677;28;20053;-72
2023/10/07 11:43:14;;;;;;;10.93;4.53;;;;;;;17.69;100.00;101408.72;6261430;28;20049;-72
2023/10/07 11:46:16;;;;;;;16.15;4.85;;;;;;;17.69;100.00;101410.53;6267437;28;20055;-72
2023/10/07 11:49:17;;;;;;;17.00;5.55;;;;;;;17.68;100.00;101412.38;6277229;28;20048;-72
2023/10/07 11:52:19;;;;;;;7.25;4.53;;;;;;;17.70;100.00;101410.44;6266114;28;20072;-72
2023/10/07 11:55:20;;;;;;;7.60;3.70;;;;;;;17.75;100.00;101418.94;6242215;28;20053;-71
2023/10/07 11:58:24;;;;;;;11.52;4.15;;;;;;;17.73;100.00;101435.94;6244717;28;20049;-74
2023/10/07 12:01:27;;;;;;;9.27;3.60;;;;;;;17.79;100.00;101414.25;6257256;28;20050;-72
2023/10/07 12:04:28;;;;;;;13.25;4.03;;;;;;;17.77;100.00;101418.84;6263214;28;20060;-72
2023/10/07 12:07:30;;;;;;;9.52;3.70;;;;;;;17.81;100.00;101423.00;6261175;28;20041;-72
2023/10/07 12:10:36;;;;;;;9.60;3.60;;;;;;;17.78;100.00;101422.34;6267174;28;20158;-71
2023/10/07 12:13:40;;;;;;;11.27;4.30;;;;;;;17.85;100.00;101420.94;6275452;28;20087;-72
2023/10/07 12:16:43;;;;;;;11.13;3.50;;;;;;;17.80;100.00;101418.59;6276293;28;20053;-72
2023/10/07 12:19:45;;;;;;;17.42;4.40;;;;;;;17.90;100.00;101432.09;6276751;28;20071;-72
2023/10/07 12:22:47;;;;;;;12.68;4.38;;;;;;;17.91;100.00;101424.00;6266694;28;20045;-72
2023/10/07 12:25:49;;;;;;;11.85;3.83;;;;;;;17.97;100.00;101423.53;6253261;28;20354;-71
2023/10/07 12:28:53;;;;;;;9.85;4.28;;;;;;;17.97;100.00;101420.03;6249708;28;20055;-72
2023/10/07 12:31:55;;;;;;;8.38;2.83;;;;;;;17.97;100.00;101438.66;6255565;28;20053;-72
2023/10/07 12:34:58;;;;;;;7.78;3.08;;;;;;;18.03;100.00;101421.38;6227007;28;20053;-71
2023/10/07 12:38:00;;;;;;;13.20;3.63;;;;;;;18.00;100.00;101430.47;6226872;28;20054;-73
2023/10/07 12:41:01;;;;;;;6.25;3.00;;;;;;;18.04;100.00;101436.41;6260608;28;20130;-72
2023/10/07 12:44:08;;;;;;;10.43;3.72;;;;;;;18.09;100.00;101428.94;6253628;28;20422;-71
2023/10/07 12:47:10;;;;;;;10.57;3.15;;;;;;;18.17;100.00;101430.06;6251125;28;20060;-72
2023/10/07 12:50:23;;;;;;;10.10;3.80;;;;;;;18.21;100.00;101438.66;6269105;28;20059;-72
2023/10/07 12:53:25;;;;;;;12.40;3.60;;;;;;;18.28;100.00;101425.75;6275837;28;20448;-72
2023/10/07 12:56:29;;;;;;;9.95;4.30;;;;;;;18.29;100.00;101425.63;6262118;28;20049;-73
2023/10/07 12:59:35;;;;;;;10.13;2.92;;;;;;;18.28;100.00;101423.94;6245546;28;20045;-72
2023/10/07 13:02:37;;;;;;;9.38;3.55;;;;;;;18.29;100.00;101422.13;6255669;28;20053;-72
2023/10/07 13:05:38;;;;;;;6.60;4.00;;;;;;;18.32;100.00;101428.06;6269693;28;20471;-72
2023/10/07 13:08:40;;;;;;;11.48;4.32;;;;;;;18.31;100.00;101410.41;6269178;28;20357;-72
2023/10/07 13:11:42;;;;;;;16.00;3.60;;;;;;;18.35;100.00;101425.19;6269863;28;20057;-72
2023/10/07 13:14:46;;;;;;;12.63;3.20;;;;;;;18.42;100.00;101421.09;6275390;28;20174;-72
2023/10/07 13:17:49;;;;;;;9.90;2.80;;;;;;;18.42;100.00;101422.91;6262445;28;20132;-72
2023/10/07 13:20:51;;;;;;;10.30;3.53;;;;;;;18.42;100.00;101422.91;6266519;28;20052;-73
2023/10/07 13:23:52;;;;;;;20.92;3.75;;;;;;;18.40;100.00;101430.16;6275453;28;20049;-72
2023/10/07 13:26:54;;;;;;;10.23;3.35;;;;;;;18.33;100.00;101435.06;6259470;28;20048;-73
2023/10/07 13:29:57;;;;;;;15.07;3.45;;;;;;;18.31;100.00;101429.03;6265730;28;20059;-72
2023/10/07 13:32:58;;;;;;;9.90;3.42;;;;;;;18.32;100.00;101422.75;6261132;28;20438;-72
2023/10/07 13:36:00;;;;;;;10.73;3.03;;;;;;;18.34;100.00;101430.59;6254155;28;20042;-71
2023/10/07 13:39:03;;;;;;;9.45;3.28;;;;;;;18.34;100.00;101422.63;6259744;28;20283;-73
2023/10/07 13:42:09;;;;;;;8.20;3.30;;;;;;;18.38;100.00;101418.75;6259299;28;20045;-73
2023/10/07 13:45:14;;;;;;;7.68;3.88;;;;;;;18.35;100.00;101408.34;6249656;28;20042;-72
2023/10/07 13:48:15;;;;;;;8.15;3.40;;;;;;;18.32;100.00;101406.78;6259548;28;20143;-73
2023/10/07 13:51:16;;;;;;;11.02;4.35;;;;;;;18.33;100.00;101399.63;6259185;28;20445;-72
2023/10/07 13:54:38;;;;;;;8.80;3.40;;;;;;;18.28;100.00;101381.38;6274457;28;20412;-73
2023/10/07 13:57:40;;;;;;;8.55;3.45;;;;;;;18.23;100.00;101387.03;6263900;28;20092;-72
2023/10/07 14:00:45;;;;;;;7.97;3.25;;;;;;;18.18;100.00;101386.53;6274902;28;20136;-73
2023/10/07 14:03:47;;;;;;;9.38;3.72;;;;;;;18.20;100.00;101389.91;6270051;28;20040;-72
2023/10/07 14:06:54;;;;;;;11.13;4.25;;;;;;;18.15;100.00;101392.06;6262665;28;20052;-72
2023/10/07 14:09:55;;;;;;;6.63;3.42;;;;;;;18.14;100.00;101395.69;6268335;28;20045;-72
2023/10/07 14:12:57;;;;;;;7.68;3.60;;;;;;;18.18;100.00;101402.50;6279587;28;20357;-72